Goldfield, Nevada Weather observations

Data are for observation ending at time listed.
 Day   Time    Ave.   Ave.  Ave.  Vector   Max.   Stn.    Total    Solar   Ave.  
  of    of     Air    Rel.  Wind   Wind    Wind   Baro.  Precip.   Rad.    Soil  
Year   Day     Temp.  Hum.  Speed  Dir.    Gust   Pres.                    Temp. 
2014   (PST)    F      %     mph   deg.    mph     mb.     in.     W/m2     F   
------------------------------------------------------------------------------
 110    5:50   48.3    29    7.3   304     11.0   831.8    0.00      78    58.7
 110    6:00   49.3    28    5.8   325      9.3   831.9    0.00      94    58.8
 110    6:10   48.5    30    4.3   354      6.0   832.1    0.00      99    58.6
 110    6:20   48.8    30    5.8   342      9.4   832.2    0.00     147    58.8
 110    6:30   49.6    29    5.3   341      9.0   832.3    0.00     177    58.7
 110    6:40   50.3    29    4.6   352      7.4   832.4    0.00     215    58.5
 110    6:50   50.9    28    6.2   348      9.2   832.4    0.00     244    58.4
 110    7:00   51.6    27    6.7   342      9.4   832.5    0.00     291    58.5
 110    7:10   52.4    27    7.1   334     11.6   832.6    0.00     374    58.5
 110    7:20   52.7    26    8.3   331     13.7   832.6    0.00     374    58.3
 110    7:30   53.1    25    9.1   322     12.6   832.6    0.00     402    58.3
 110    7:40   53.6    25    8.8   325     13.1   832.7    0.00     426    58.5
 110    7:50   54.3    24    8.9   321     12.4   832.6    0.00     494    58.5
 110    8:00   54.9    24    9.5   324     13.7   832.6    0.00     527    58.6
 110    8:10   56.2    22    8.3   326     13.4   832.6    0.00     577    58.7
 110    8:20   57.3    20    9.2   322     14.2   832.5    0.00     564    59.0
 110    8:30   58.2    19   10.5   324     16.3   832.5    0.00     617    59.2
 110    8:40   58.6    19   10.8   330     17.2   832.6    0.00     673    59.7
 110    8:50   58.7    18   10.9   324     16.7   832.7    0.00     699    59.7
 110    9:00   59.2    18   12.4   322     18.4   832.7    0.00     718    59.9
 110    9:10   59.8    17   11.5   322     16.9   832.7    0.00     770    60.2
 110    9:20   59.9    17   12.1   323     18.6   832.7    0.00     768    60.6
 110    9:30   60.2    17   12.1   319     18.9   832.8    0.00     802    60.7
 110    9:40   61.0    16   10.4   322     17.8   832.8    0.00     856    61.2
 110    9:50   61.6    16   10.9   321     17.8   832.8    0.00     878    61.3
 110   10:00   62.2    16   10.1   317     15.8   832.7    0.00     878    62.0
 110   10:10   64.6    14   11.5   296     19.3   832.7    0.00     912    62.4
 110   10:20   65.4    14   10.4   299     14.6   832.6    0.00     924    62.6
 110   10:30   65.3    13   11.0   294     18.2   832.5    0.00     914    63.3
 110   10:40   64.9    13    9.7   306     14.6   832.5    0.00     938    63.9
 110   10:50   66.5    12    8.7   300     14.8   832.4    0.00     966    64.5
 110   11:00   66.2    12    9.3   309     15.8   832.4    0.00     965    64.8
 110   11:10   65.9    12    9.7   319     17.8   832.3    0.00     977    65.5
 110   11:20   65.6    12    8.0   324     16.1   832.2    0.00     986    66.0
 110   11:30   66.4    12    7.4   327     13.5   832.1    0.00     990    66.4
 110   11:40   66.4    12    8.7   337     16.0   832.0    0.00     987    66.8
 110   11:50   66.5    12    8.2   341     14.5   831.8    0.00     988    67.4
 110   12:00   66.8    12    8.5   342     14.7   831.7    0.00     985    67.6
 110   12:10   68.3    12    5.8    11     10.3   831.7    0.00     988    68.0
 110   12:20   69.5    12    6.6   313     13.2   831.6    0.00     980    68.7
 110   12:30   68.7    12    7.1   316     14.2   831.6    0.00     956    68.9
 110   12:40   68.6    12    5.3   347     13.4   831.6    0.00     955    69.3
 110   12:50   69.0    12    5.1   346     10.5   831.5    0.00     939    69.7
 110   13:00   69.5    12    4.5   342     10.4   831.3    0.00     933    70.0
 110   13:10   71.1    12    5.2   308     12.3   831.2    0.00     922    70.2
 110   13:20   70.3    12    5.9   297     12.1   831.1    0.00     913    70.5
 110   13:30   70.4    12    4.1   322     13.2   831.0    0.00     894    70.2
 110   13:40   71.1    12    3.2    17      6.5   830.8    0.00     873    70.3
 110   13:50   71.1    12    4.7   339      8.6   830.7    0.00     846    70.1
 110   14:00   70.8    12    4.4    39      8.5   830.7    0.00     823    70.0
 110   14:10   71.5    12    5.3    50     12.1   830.5    0.00     798    70.0
 110   14:20   71.4    12    5.3     4     10.9   830.4    0.00     773    69.8
 110   14:30   71.0    11    5.8   333     15.3   830.3    0.00     747    69.7
 110   14:40   71.2    12    6.8   348     13.4   830.0    0.00     721    70.0
 110   14:50   72.1    11    5.1   351     11.3   830.0    0.00     695    69.9
 110   15:00   71.9    11    7.4   327     11.2   830.0    0.00     665    70.0
 110   15:10   72.1    11    3.8   308     12.6   829.9    0.00     631    69.9
 110   15:20   72.4    11    5.9   331     12.3   829.8    0.00     596    70.0
 110   15:30   71.9    11    6.1   347     12.9   829.6    0.00     572    70.0
 110   15:40   72.0    11    6.5   348     11.8   829.6    0.00     530    70.2
 110   15:50   72.1    11    6.1    14     11.2   829.6    0.00     504    70.4
 110   16:00   72.4    11    7.5   329     14.1   829.6    0.00     294    70.0
 110   16:10   71.3    12    7.3   322     12.1   829.6    0.00     249    70.3
 110   16:20   71.2    12    6.0   293     12.1   829.5    0.00     141    70.2
 110   16:30   70.4    12    6.4   319     11.1   829.6    0.00     171    70.2
 110   16:40   70.0    13    7.5   319     11.2   829.6    0.00     170    70.1
 110   16:50   69.8    13    5.6   320      8.9   829.6    0.00     138    70.0
 110   17:00   70.4    12    6.8   303      9.8   829.7    0.00     201    69.9
 110   17:10   71.1    12    5.6   325      9.1   829.7    0.00     247    69.9
 110   17:20   71.0    12    4.3   334      7.5   829.6    0.00     205    69.8
 110   17:30   71.1    12    6.5   320     12.1   829.5    0.00     162    69.5
 110   17:40   71.1    11    5.5   304      9.5   829.5    0.00     127    69.4
 110   17:50   70.1    12    7.2   308     10.9   829.5    0.00      90    69.3
 110   18:00   68.9    12    6.6   310      9.3   829.5    0.00      61    69.3
 110   18:10   68.1    13    5.8   302      8.6   829.5    0.00      30    69.3
 110   18:20   67.0    13    4.9   299      6.2   829.6    0.00      18    69.2
 110   18:30   65.3    14    4.5   285      5.6   829.7    0.00      10    68.7
 110   18:40   63.6    14    5.4   280      7.2   829.8    0.00       3    68.8
 110   18:50   63.0    14    6.2   284      8.1   829.9    0.00       0    68.6
 110   19:00   62.8    13    5.1   287      7.5   830.1    0.00       0    68.4
 110   19:10   62.2    13    5.0   290      6.7   830.3    0.00       0    68.2
 110   19:20   61.2    13    4.4   293      6.5   830.5    0.00       0    68.1
 110   19:30   59.9    13    4.8   281      6.9   830.6    0.00       0    67.9
 110   19:40   59.9    12    6.0   281      8.3   830.7    0.00       0    67.6
 110   19:50   60.5    12    6.4   278     10.6   830.8    0.00       0    67.5
 110   20:00   60.9    11    7.5   283     10.6   830.9    0.00       0    67.2
 110   20:10   60.5    11    6.4   281      9.3   831.1    0.00       0    67.0
 110   20:20   60.2    11    6.1   286      9.4   831.2    0.00       0    66.8
 110   20:30   59.8    11    5.4   293      8.5   831.3    0.00       0    66.7
 110   20:40   59.6    11    7.1   280      9.6   831.4    0.00       0    66.5
 110   20:50   60.0    11    7.4   283     11.5   831.5    0.00       0    66.3
 110   21:00   59.8    11    7.3   284     10.0   831.5    0.00       0    66.0
 110   21:10   58.9    12    4.9   275      8.0   831.5    0.00       0    65.9
 110   21:20   58.5    12    4.7   274      7.8   831.4    0.00       0    65.7
 110   21:30   58.1    12    5.1   278      7.9   831.5    0.00       0    65.6
 110   21:40   57.5    13    5.1   279      7.3   831.4    0.00       0    65.4
 110   21:50   56.9    13    5.5   280      7.7   831.4    0.00       0    65.2
 110   22:00   56.6    14    5.8   283      7.5   831.5    0.00       0    65.0
 110   22:10   56.9    14    5.2   288      7.1   831.6    0.00       0    64.9
 110   22:20   57.4    14    4.1   300      5.8   831.6    0.00       0    64.8
 110   22:30   57.0    14    3.7   307      5.5   831.6    0.00       0    64.6
 110   22:40   56.5    14    2.7   328      3.9   831.6    0.00       0    64.4
 110   22:50   55.5    15    1.3   355      2.7   831.6    0.00       0    64.3
 110   23:00   54.8    15    0.9    64      1.7   831.7    0.00       0    64.2
 110   23:10   54.2    15    2.3   119      3.7   831.7    0.00       0    63.9
 110   23:20   54.2    15    2.3   116      2.9   831.7    0.00       0    63.9
 110   23:30   53.8    15    2.6   109      3.2   831.7    0.00       0    63.7
 110   23:40   53.9    15    2.8   127      3.3   831.6    0.00       0    63.6
 110   23:50   54.4    15    2.1   109      3.0   831.6    0.00       0    63.3
 111    0:00   52.2    17    1.4   135      1.8   831.7    0.00       0    63.3
 111    0:10   51.5    17    1.4   200      2.2   831.7    0.00       0    63.2
 111    0:20   51.9    17    1.6   228      2.8   831.6    0.00       0    62.8
 111    0:30   51.3    18    1.3   189      2.6   831.5    0.00       0    62.7
 111    0:40   50.6    18    0.8    88      2.2   831.5    0.00       0    62.5
 111    0:50   50.5    18    2.1   111      2.9   831.5    0.00       0    62.4
 111    1:00   50.7    18    0.5   119      2.5   831.4    0.00       0    62.0
 111    1:10   50.2    19    0.3   277      2.0   831.4    0.00       0    62.1
 111    1:20   49.4    20    0.3    68      0.9   831.3    0.00       0    62.2
 111    1:30   49.0    20    1.9   107      3.9   831.2    0.00       0    61.8
 111    1:40   50.5    19    2.2   120      3.8   831.2    0.00       0    61.6
 111    1:50   51.1    20    0.4   160      1.5   831.2    0.00       0    61.3
 111    2:00   49.8    21    1.7   193      2.7   831.2    0.00       0    61.3
 111    2:10   50.5    21    1.7   254      2.2   831.2    0.00       0    61.1
 111    2:20   51.3    20    2.6   260      3.7   831.2    0.00       0    61.4
 111    2:30   51.0    21    1.8   261      3.3   831.1    0.00       0    60.9
 111    2:40   49.8    22    2.0   221      2.7   831.0    0.00       0    61.0
 111    2:50   49.2    22    1.9   116      2.8   831.0    0.00       0    60.7
 111    3:00   49.2    22    1.8   153      2.7   831.0    0.00       0    60.3
 111    3:10   48.9    22    2.1   127      3.7   830.9    0.00       0    60.4
 111    3:20   48.8    22    2.0   163      3.3   830.9    0.00       0    60.2
 111    3:30   48.9    22    1.6   234      2.4   830.9    0.00       0    60.1
 111    3:40   49.1    22    1.6   187      2.7   830.9    0.00       0    59.9
 111    3:50   49.6    22    3.0   131      4.8   830.8    0.00       0    59.7
 111    4:00   49.1    22    1.7   156      4.5   830.9    0.00       0    59.7
 111    4:10   48.3    23    1.7   222      2.5   830.8    0.00       0    59.5
 111    4:20   48.3    23    1.6   139      4.0   830.8    0.00       0    59.5
 111    4:30   48.3    23    1.4   154      3.7   830.9    0.00       0    59.3
 111    4:40   47.5    24    1.0   103      2.0   830.8    0.00       0    59.1
 111    4:50   46.8    24    1.2   155      2.0   830.8    0.00       0    58.9
 111    5:00   47.1    24    1.2   162      1.9   830.7    0.00       0    58.9
 111    5:10   47.4    24    1.8   137      2.7   830.9    0.00       4    58.8
 111    5:20   47.0    24    1.8   148      3.1   830.8    0.00      11    58.5
 111    5:30   47.3    24    2.2   136      3.7   830.8    0.00      32    58.6
 111    5:40   49.6    22    3.3   174      5.0   830.9    0.00      65    58.5

Return to Goldfield, Nevada graphs page.


Western Regional Climate Center,wrcc@dri.edu